Time;durP1;ratioP1;P1;durP2;ratioP2;P2;SDS_P1;SDS_P2;PMS_P1;PMS_P2;Temp;Humidity;BMP_temperature;BMP_pressure;BME280_temperature;BME280_humidity;BME280_pressure;Samples;Min_cycle;Max_cycle;Signal;HPM_P1;HPM_P2
2021/01/04 00:00:10;;;;;;;36.80;15.77;;;;;;;0.87;100.00;95736.63;4995594;28;20218;-71
2021/01/04 00:02:51;;;;;;;35.27;14.87;;;;;;;0.93;100.00;95736.13;4994982;28;20212;-71
2021/01/04 00:05:30;;;;;;;35.73;16.23;;;;;;;0.95;100.00;95733.38;4994682;28;20217;-71
2021/01/04 00:08:29;;;;;;;32.90;14.77;;;;;;;0.95;100.00;95726.41;4996453;28;20760;-71
2021/01/04 00:11:16;;;;;;;31.83;14.63;;;;;;;0.94;100.00;95726.56;4995921;28;20635;-71
2021/01/04 00:13:56;;;;;;;33.47;15.07;;;;;;;0.95;100.00;95733.38;4996146;28;20689;-71
2021/01/04 00:16:30;;;;;;;36.30;15.37;;;;;;;0.92;100.00;95728.47;4995609;28;20268;-71
2021/01/04 00:19:04;;;;;;;39.17;15.90;;;;;;;1.03;100.00;95736.13;4998455;28;20227;-71
2021/01/04 00:21:37;;;;;;;38.13;16.00;;;;;;;0.95;100.00;95731.59;4997988;28;20217;-71
2021/01/04 00:24:09;;;;;;;42.87;15.87;;;;;;;0.93;100.00;95724.91;4998060;28;20225;-71
2021/01/04 00:26:46;;;;;;;38.50;16.17;;;;;;;1.00;100.00;95726.84;4997499;28;20718;-71
2021/01/04 00:29:12;;;;;;;39.70;16.43;;;;;;;0.99;100.00;95724.38;4998380;28;20198;-71
2021/01/04 00:31:42;;;;;;;41.40;17.37;;;;;;;1.08;100.00;95723.59;4997916;28;20226;-72
2021/01/04 00:34:13;;;;;;;36.10;16.43;;;;;;;1.07;100.00;95724.53;4997441;28;20221;-71
2021/01/04 00:36:51;;;;;;;36.83;17.07;;;;;;;1.16;100.00;95726.34;4997814;28;20207;-71
2021/01/04 00:39:33;;;;;;;40.07;17.13;;;;;;;1.15;100.00;95719.53;4998008;28;20210;-72
2021/01/04 00:42:04;;;;;;;38.10;15.73;;;;;;;1.10;100.00;95721.69;4997422;28;20747;-72
2021/01/04 00:44:42;;;;;;;36.43;16.20;;;;;;;1.07;100.00;95720.19;4997959;28;20317;-72
2021/01/04 00:47:14;;;;;;;39.70;16.23;;;;;;;1.10;100.00;95713.91;4996945;28;20560;-71
2021/01/04 00:49:44;;;;;;;40.17;17.07;;;;;;;1.26;100.00;95720.22;4997484;28;20210;-71
2021/01/04 00:52:25;;;;;;;33.90;16.30;;;;;;;1.24;100.00;95715.16;4997718;28;20689;-71
2021/01/04 00:55:22;;;;;;;38.03;16.87;;;;;;;1.13;100.00;95716.25;4997443;28;20226;-72
2021/01/04 00:58:23;;;;;;;43.00;18.20;;;;;;;1.14;100.00;95716.09;4997607;28;20696;-72
2021/01/04 01:00:54;;;;;;;43.47;17.77;;;;;;;1.02;100.00;95724.13;4986112;28;20202;-72
2021/01/04 01:03:47;;;;;;;35.27;16.43;;;;;;;1.16;100.00;95728.94;4997546;28;21139;-72
2021/01/04 01:06:23;;;;;;;40.27;16.87;;;;;;;1.03;100.00;95730.94;4993375;28;20293;-72
2021/01/04 01:08:53;;;;;;;37.07;16.43;;;;;;;0.85;100.00;95729.94;4997513;28;20214;-72
2021/01/04 01:11:47;;;;;;;37.80;16.43;;;;;;;0.72;100.00;95732.75;4996611;28;20236;-72
2021/01/04 01:14:20;;;;;;;40.53;16.40;;;;;;;0.96;100.00;95729.84;4997837;28;20226;-71
2021/01/04 01:17:12;;;;;;;41.50;17.40;;;;;;;1.07;100.00;95738.34;4996810;28;20227;-71
2021/01/04 01:19:46;;;;;;;38.63;17.13;;;;;;;0.98;100.00;95730.53;4997380;28;20215;-71
2021/01/04 01:22:14;;;;;;;46.70;18.60;;;;;;;1.08;100.00;95737.38;4997709;28;20198;-71
2021/01/04 01:24:41;;;;;;;42.90;17.90;;;;;;;1.11;100.00;95733.69;4997144;28;20226;-71
2021/01/04 01:27:20;;;;;;;42.40;18.17;;;;;;;1.12;100.00;95724.97;4996464;28;20213;-71
2021/01/04 01:30:10;;;;;;;44.10;18.20;;;;;;;1.31;100.00;95729.25;4997289;28;20674;-71
2021/01/04 01:32:51;;;;;;;43.03;16.53;;;;;;;1.36;100.00;95729.69;4996884;28;20288;-72
2021/01/04 01:35:38;;;;;;;42.20;18.53;;;;;;;1.39;100.00;95738.97;4996395;28;20210;-72
2021/01/04 01:38:36;;;;;;;43.07;17.30;;;;;;;1.30;100.00;95732.81;4997341;28;20248;-72
2021/01/04 01:41:30;;;;;;;39.47;17.50;;;;;;;1.22;100.00;95732.66;4997012;28;20201;-72
2021/01/04 01:44:08;;;;;;;42.40;17.57;;;;;;;1.06;100.00;95731.50;4996749;28;20230;-72
2021/01/04 01:46:41;;;;;;;40.40;17.27;;;;;;;1.08;100.00;95728.78;4996972;28;20213;-72
2021/01/04 01:49:19;;;;;;;42.87;17.47;;;;;;;1.09;100.00;95735.63;4997158;28;20225;-72
2021/01/04 01:52:02;;;;;;;44.17;18.43;;;;;;;1.14;100.00;95739.44;4997183;28;20708;-72
2021/01/04 01:54:39;;;;;;;42.60;18.17;;;;;;;1.04;100.00;95742.97;4996863;28;20241;-72
2021/01/04 01:57:22;;;;;;;39.10;18.10;;;;;;;1.16;100.00;95745.34;4996048;28;20202;-72
2021/01/04 02:00:06;;;;;;;43.73;18.17;;;;;;;1.15;100.00;95745.47;4997092;28;21243;-72
2021/01/04 02:02:41;;;;;;;44.37;17.03;;;;;;;1.10;100.00;95745.06;4996981;28;20210;-72
2021/01/04 02:05:15;;;;;;;42.07;18.03;;;;;;;1.08;100.00;95749.53;4996210;28;20206;-72
2021/01/04 02:07:47;;;;;;;42.50;18.53;;;;;;;1.00;100.00;95752.78;4997122;28;20210;-72
2021/01/04 02:10:17;;;;;;;41.37;18.03;;;;;;;0.90;100.00;95751.13;4996776;28;20202;-72
2021/01/04 02:12:53;;;;;;;42.20;18.07;;;;;;;0.86;100.00;95747.94;4996719;28;20230;-71
2021/01/04 02:15:22;;;;;;;43.00;18.20;;;;;;;0.96;100.00;95748.81;4996320;28;20206;-71
2021/01/04 02:18:21;;;;;;;44.00;18.80;;;;;;;0.97;100.00;95760.84;4996938;28;20210;-71
2021/01/04 02:21:35;;;;;;;39.80;17.63;;;;;;;1.10;100.00;95752.84;4998030;28;20214;-72
2021/01/04 02:24:05;;;;;;;45.47;18.17;;;;;;;1.00;100.00;95752.78;4999890;28;20275;-72
2021/01/04 02:26:32;;;;;;;43.50;18.87;;;;;;;0.87;100.00;95751.38;4999644;28;20214;-72
2021/01/04 02:29:02;;;;;;;46.40;18.70;;;;;;;0.83;100.00;95756.00;5000282;28;20210;-72
2021/01/04 02:31:28;;;;;;;43.47;18.03;;;;;;;0.94;100.00;95760.28;5000147;28;20326;-72
2021/01/04 02:33:55;;;;;;;45.90;18.27;;;;;;;1.03;100.00;95752.53;5000024;28;20226;-72
2021/01/04 02:36:22;;;;;;;40.97;17.43;;;;;;;1.08;100.00;95758.13;5000155;28;20704;-72
2021/01/04 02:39:00;;;;;;;45.47;18.40;;;;;;;1.03;100.00;95747.34;4999909;28;20899;-72
2021/01/04 02:41:39;;;;;;;41.93;17.87;;;;;;;0.89;100.00;95749.47;5000451;28;20209;-72
2021/01/04 02:44:05;;;;;;;41.37;17.70;;;;;;;0.93;100.00;95745.66;4999547;28;20709;-71
2021/01/04 02:46:35;;;;;;;43.30;18.70;;;;;;;1.01;100.00;95748.44;4999807;28;20347;-71
2021/01/04 02:49:10;;;;;;;45.00;17.93;;;;;;;1.01;100.00;95738.06;4999937;28;20209;-71
2021/01/04 02:51:42;;;;;;;44.27;19.10;;;;;;;1.00;100.00;95741.59;5000331;28;20225;-71
2021/01/04 02:54:18;;;;;;;41.03;17.80;;;;;;;0.91;100.00;95742.38;4999562;28;20237;-72
2021/01/04 02:56:52;;;;;;;45.57;18.90;;;;;;;1.04;100.00;95741.19;4999500;28;20213;-72
2021/01/04 02:59:42;;;;;;;47.20;19.20;;;;;;;1.24;100.00;95741.09;5000022;28;20205;-72
2021/01/04 03:02:12;;;;;;;44.33;18.10;;;;;;;1.33;100.00;95737.72;4999902;28;20202;-72
2021/01/04 03:04:39;;;;;;;46.30;18.97;;;;;;;1.29;100.00;95745.91;4999165;28;20245;-72
2021/01/04 03:07:11;;;;;;;40.33;17.43;;;;;;;1.29;100.00;95744.13;4999024;28;20202;-72
2021/01/04 03:09:43;;;;;;;44.43;17.87;;;;;;;1.36;100.00;95740.06;4999259;28;20226;-72
2021/01/04 03:12:14;;;;;;;43.83;18.17;;;;;;;1.28;100.00;95744.25;4999547;28;20231;-72
2021/01/04 03:14:57;;;;;;;44.27;17.80;;;;;;;1.19;100.00;95739.06;5000054;28;20230;-72
2021/01/04 03:17:35;;;;;;;40.90;17.60;;;;;;;1.20;100.00;95741.53;4994640;28;20213;-72
2021/01/04 03:20:05;;;;;;;43.87;17.87;;;;;;;0.93;100.00;95741.31;4999157;28;20221;-72
2021/01/04 03:22:31;;;;;;;41.13;17.90;;;;;;;1.10;100.00;95737.28;5000723;28;20847;-72
2021/01/04 03:24:57;;;;;;;40.73;16.67;;;;;;;0.95;100.00;95741.16;4999187;28;20222;-72
2021/01/04 03:27:29;;;;;;;43.13;17.97;;;;;;;0.91;100.00;95743.19;4998661;28;20221;-72
2021/01/04 03:29:55;;;;;;;42.10;18.10;;;;;;;1.12;100.00;95740.53;5000164;28;20245;-71
2021/01/04 03:32:21;;;;;;;45.13;18.00;;;;;;;1.11;100.00;95737.13;4999223;28;20234;-72
2021/01/04 03:34:47;;;;;;;42.90;17.47;;;;;;;1.28;100.00;95732.09;4999221;28;20340;-72
2021/01/04 03:37:13;;;;;;;44.40;17.87;;;;;;;1.32;100.00;95738.69;4998313;28;20216;-72
2021/01/04 03:39:41;;;;;;;42.73;17.30;;;;;;;1.28;100.00;95729.50;5000008;28;20210;-72
2021/01/04 03:42:08;;;;;;;41.67;17.23;;;;;;;1.39;100.00;95733.78;4999469;28;20276;-72
2021/01/04 03:44:34;;;;;;;40.47;17.20;;;;;;;1.22;100.00;95737.00;4998957;28;20243;-72
2021/01/04 03:47:00;;;;;;;42.17;17.63;;;;;;;1.18;100.00;95734.81;4998553;28;20214;-72
2021/01/04 03:49:27;;;;;;;34.53;16.60;;;;;;;1.10;100.00;95738.06;4998841;28;20210;-72
2021/01/04 03:51:54;;;;;;;41.27;17.80;;;;;;;1.23;100.00;95742.09;4999117;28;20522;-72
2021/01/04 03:54:20;;;;;;;38.90;16.93;;;;;;;1.29;100.00;95741.53;4998872;28;20229;-72
2021/01/04 03:56:46;;;;;;;40.03;17.30;;;;;;;1.39;100.00;95742.38;4998025;28;20293;-72
2021/01/04 03:59:14;;;;;;;41.30;17.33;;;;;;;1.33;100.00;95749.88;4998534;28;20267;-72
2021/01/04 04:01:47;;;;;;;36.60;16.40;;;;;;;1.48;100.00;95749.34;4999178;28;20205;-72
2021/01/04 04:04:13;;;;;;;38.00;16.13;;;;;;;1.54;100.00;95743.63;4998264;28;20222;-72
2021/01/04 04:06:39;;;;;;;45.20;17.27;;;;;;;1.58;100.00;95742.41;4997996;28;20685;-72
2021/01/04 04:09:05;;;;;;;35.27;15.47;;;;;;;1.30;100.00;95752.75;4998976;28;20909;-72
2021/01/04 04:11:31;;;;;;;37.27;16.27;;;;;;;1.43;100.00;95745.53;4998334;28;20708;-72
2021/01/04 04:13:57;;;;;;;40.27;17.47;;;;;;;1.32;100.00;95754.25;4998518;28;20229;-73
2021/01/04 04:16:23;;;;;;;38.67;16.60;;;;;;;1.40;100.00;95753.56;4997978;28;20206;-72
2021/01/04 04:18:50;;;;;;;42.07;17.57;;;;;;;1.46;100.00;95756.44;4998590;28;20213;-72
2021/01/04 04:21:16;;;;;;;35.77;15.57;;;;;;;1.41;100.00;95757.81;4998034;28;20202;-73
2021/01/04 04:23:42;;;;;;;36.90;16.47;;;;;;;1.32;100.00;95749.06;4998564;28;20236;-71
2021/01/04 04:26:16;;;;;;;37.37;16.23;;;;;;;1.41;100.00;95753.47;4997346;28;21021;-72
2021/01/04 04:28:42;;;;;;;34.67;15.90;;;;;;;1.47;100.00;95752.91;4998282;28;20552;-72
2021/01/04 04:31:08;;;;;;;37.27;16.17;;;;;;;1.48;100.00;95754.56;4998159;28;20236;-72
2021/01/04 04:33:34;;;;;;;38.50;16.47;;;;;;;1.40;100.00;95756.16;4998628;28;20685;-72
2021/01/04 04:36:00;;;;;;;38.43;16.00;;;;;;;1.45;100.00;95760.03;4996831;28;20236;-72
2021/01/04 04:38:26;;;;;;;39.63;17.30;;;;;;;1.52;100.00;95763.72;4997638;28;20209;-71
2021/01/04 04:40:52;;;;;;;35.73;15.53;;;;;;;1.50;100.00;95763.03;4999639;28;20293;-72
2021/01/04 04:43:28;;;;;;;30.40;14.90;;;;;;;1.58;100.00;95758.00;4997592;28;20657;-72
2021/01/04 04:45:56;;;;;;;38.07;15.90;;;;;;;1.37;100.00;95759.03;4997063;28;20207;-72
2021/01/04 04:48:37;;;;;;;34.17;14.63;;;;;;;1.29;100.00;95758.88;4998030;28;20977;-72
2021/01/04 04:51:28;;;;;;;37.37;15.43;;;;;;;1.35;100.00;95751.38;4997757;28;20209;-72
2021/01/04 04:54:14;;;;;;;36.20;15.20;;;;;;;1.43;100.00;95751.53;4992869;28;20255;-72
2021/01/04 04:57:26;;;;;;;35.10;14.87;;;;;;;1.53;100.00;95752.38;4997385;28;21119;-72
2021/01/04 05:00:06;;;;;;;33.63;14.40;;;;;;;1.43;100.00;95754.13;4997786;28;20574;-72
2021/01/04 05:02:43;;;;;;;29.90;14.10;;;;;;;1.56;100.00;95756.47;4997156;28;20209;-72
2021/01/04 05:05:30;;;;;;;31.97;14.13;;;;;;;1.40;100.00;95757.00;4996747;28;20248;-72
2021/01/04 05:08:06;;;;;;;30.07;14.20;;;;;;;1.35;100.00;95753.97;4996664;28;20209;-72
2021/01/04 05:10:35;;;;;;;32.20;13.80;;;;;;;1.35;100.00;95753.16;4997080;28;20210;-72
2021/01/04 05:13:11;;;;;;;31.43;14.17;;;;;;;1.44;100.00;95753.19;4996235;28;20345;-72
2021/01/04 05:15:47;;;;;;;27.73;13.13;;;;;;;1.47;100.00;95750.31;4996077;28;20221;-72
2021/01/04 05:18:57;;;;;;;27.67;13.03;;;;;;;1.45;100.00;95757.44;4996397;28;20208;-72
2021/01/04 05:21:56;;;;;;;28.77;12.37;;;;;;;1.46;100.00;95760.84;4977191;28;20209;-72
2021/01/04 05:24:58;;;;;;;30.30;13.00;;;;;;;1.39;100.00;95755.34;4996119;28;20225;-72
2021/01/04 05:28:06;;;;;;;28.33;12.53;;;;;;;1.47;100.00;95762.47;4962743;28;20267;-72
2021/01/04 05:30:53;;;;;;;28.37;12.70;;;;;;;1.47;100.00;95763.28;4996072;28;20205;-72
2021/01/04 05:33:46;;;;;;;27.40;12.07;;;;;;;1.41;100.00;95756.06;4995461;28;20593;-72
2021/01/04 05:36:24;;;;;;;28.97;12.53;;;;;;;1.34;100.00;95752.34;4995805;28;20283;-72
2021/01/04 05:39:05;;;;;;;28.77;12.27;;;;;;;1.45;100.00;95759.19;4996428;28;20820;-72
2021/01/04 05:41:49;;;;;;;29.63;12.50;;;;;;;1.47;100.00;95749.50;4996400;28;20213;-72
2021/01/04 05:44:40;;;;;;;33.57;15.80;;;;;;;1.51;100.00;95751.69;4995745;28;20384;-72
2021/01/04 05:47:26;;;;;;;31.20;14.03;;;;;;;1.52;100.00;95753.31;4996164;28;20217;-72
2021/01/04 05:49:59;;;;;;;40.80;16.47;;;;;;;1.49;100.00;95751.00;4996394;28;20217;-72
2021/01/04 05:52:25;;;;;;;30.73;13.27;;;;;;;1.38;100.00;95745.13;4996391;28;20225;-72
2021/01/04 05:54:53;;;;;;;33.23;13.67;;;;;;;1.42;100.00;95749.06;4995959;28;20226;-73
2021/01/04 05:57:19;;;;;;;53.40;18.67;;;;;;;1.51;100.00;95758.66;4994152;28;20696;-72
2021/01/04 05:59:47;;;;;;;80.87;23.00;;;;;;;1.51;100.00;95759.47;4996267;28;20214;-72
2021/01/04 06:02:21;;;;;;;93.30;26.73;;;;;;;1.59;100.00;95751.00;4995939;28;20209;-72
2021/01/04 06:04:48;;;;;;;69.10;21.23;;;;;;;1.47;100.00;95749.50;4995607;28;21105;-72
2021/01/04 06:07:14;;;;;;;30.70;13.27;;;;;;;1.49;100.00;95751.00;4976619;28;550044;-72
2021/01/04 06:09:40;;;;;;;26.23;12.83;;;;;;;1.62;100.00;95751.56;4997121;28;20206;-72
2021/01/04 06:12:16;;;;;;;30.07;13.13;;;;;;;1.54;100.00;95753.19;4996264;28;20218;-72
2021/01/04 06:14:42;;;;;;;28.20;12.47;;;;;;;1.64;100.00;95754.03;4996723;28;20230;-72
2021/01/04 06:17:27;;;;;;;28.20;12.67;;;;;;;1.59;100.00;95751.84;4995838;28;20340;-72
2021/01/04 06:19:56;;;;;;;27.53;12.30;;;;;;;1.58;100.00;95755.38;4996954;28;20233;-72
2021/01/04 06:22:28;;;;;;;29.93;13.20;;;;;;;1.55;100.00;95752.25;4996951;28;20199;-72
2021/01/04 06:24:59;;;;;;;32.67;13.93;;;;;;;1.55;100.00;95754.84;4995884;28;20745;-73
2021/01/04 06:27:33;;;;;;;32.53;14.37;;;;;;;1.44;100.00;95758.38;4996513;28;20273;-73
2021/01/04 06:30:13;;;;;;;31.83;14.70;;;;;;;1.39;100.00;95768.34;4996810;28;20771;-74
2021/01/04 06:32:39;;;;;;;34.87;15.53;;;;;;;1.39;100.00;95760.53;4996886;28;20240;-74
2021/01/04 06:35:29;;;;;;;32.40;14.50;;;;;;;1.39;100.00;95773.53;4995460;28;21012;-72
2021/01/04 06:38:06;;;;;;;37.50;15.70;;;;;;;1.28;100.00;95768.44;4997068;28;20571;-74
2021/01/04 06:40:36;;;;;;;38.03;15.27;;;;;;;1.26;100.00;95766.91;4996108;28;20210;-74
2021/01/04 06:43:16;;;;;;;36.63;15.53;;;;;;;1.24;100.00;95764.47;4996375;28;20214;-74
2021/01/04 06:45:55;;;;;;;37.33;15.37;;;;;;;1.32;100.00;95763.81;4996197;28;20237;-73
2021/01/04 06:48:28;;;;;;;39.60;15.37;;;;;;;1.28;100.00;95763.25;4996735;28;20210;-73
2021/01/04 06:51:07;;;;;;;39.80;16.40;;;;;;;1.18;100.00;95760.78;4996350;28;20213;-73
2021/01/04 06:54:06;;;;;;;38.57;16.60;;;;;;;1.18;100.00;95765.97;4995999;28;20915;-73
2021/01/04 06:57:20;;;;;;;38.63;15.93;;;;;;;1.20;100.00;95759.69;4995522;28;20225;-72
2021/01/04 07:00:20;;;;;;;43.33;17.53;;;;;;;1.19;100.00;95761.44;4996210;28;20389;-73
2021/01/04 07:03:14;;;;;;;38.33;17.03;;;;;;;1.22;100.00;95768.13;4997954;28;20198;-74
2021/01/04 07:06:13;;;;;;;40.33;16.53;;;;;;;1.22;100.00;95768.13;4996784;28;20224;-74
2021/01/04 07:09:17;;;;;;;39.30;16.17;;;;;;;1.19;100.00;95764.03;4963427;28;20215;-72
2021/01/04 07:11:47;;;;;;;34.20;15.97;;;;;;;1.16;100.00;95768.69;4964791;28;20712;-74
2021/01/04 07:14:30;;;;;;;41.50;16.43;;;;;;;0.91;100.00;95760.53;4999816;28;20225;-72
2021/01/04 07:17:18;;;;;;;39.73;16.30;;;;;;;0.95;100.00;95777.47;4999132;28;20209;-72
2021/01/04 07:20:03;;;;;;;38.03;16.33;;;;;;;1.02;100.00;95773.41;4999863;28;20210;-72
2021/01/04 07:22:42;;;;;;;37.77;16.33;;;;;;;1.08;100.00;95771.09;4999276;28;20206;-72
2021/01/04 07:25:20;;;;;;;39.13;17.03;;;;;;;1.10;100.00;95776.19;4997941;28;21198;-72
2021/01/04 07:27:51;;;;;;;35.10;15.27;;;;;;;1.09;100.00;95771.94;4998456;28;20760;-72
2021/01/04 07:30:50;;;;;;;43.00;17.17;;;;;;;1.08;100.00;95767.69;4999297;28;20246;-72
2021/01/04 07:33:26;;;;;;;43.40;16.83;;;;;;;1.16;100.00;95765.25;4998700;28;20279;-73
2021/01/04 07:36:01;;;;;;;42.57;16.87;;;;;;;1.05;100.00;95770.56;4998383;28;20212;-73
2021/01/04 07:38:37;;;;;;;43.17;17.83;;;;;;;0.76;100.00;95765.28;4998899;28;20640;-74
2021/01/04 07:41:19;;;;;;;47.23;18.53;;;;;;;0.86;100.00;95773.06;4999371;28;21086;-73
2021/01/04 07:44:25;;;;;;;44.13;18.43;;;;;;;0.82;100.00;95782.06;4998403;28;20229;-74
2021/01/04 07:47:25;;;;;;;42.23;17.57;;;;;;;0.81;100.00;95786.41;4998121;28;20211;-74
2021/01/04 07:50:08;;;;;;;43.57;16.27;;;;;;;0.78;100.00;95780.69;5000061;28;20213;-73
2021/01/04 07:53:25;;;;;;;49.53;18.70;;;;;;;0.70;100.00;95780.50;4998565;28;20244;-73
2021/01/04 07:56:20;;;;;;;44.77;17.73;;;;;;;0.82;100.00;95779.47;4965573;28;20213;-74
2021/01/04 07:59:14;;;;;;;48.07;19.17;;;;;;;0.85;100.00;95781.81;4999238;28;20212;-72
2021/01/04 08:02:20;;;;;;;50.37;18.57;;;;;;;0.77;100.00;95781.63;4998652;28;20621;-72
2021/01/04 08:05:22;;;;;;;49.93;17.73;;;;;;;0.82;100.00;95784.66;4998578;28;20282;-74
2021/01/04 08:08:15;;;;;;;48.60;19.03;;;;;;;0.93;100.00;95788.00;4998420;28;20227;-74
2021/01/04 08:11:24;;;;;;;46.03;18.80;;;;;;;0.74;100.00;95787.09;4998479;28;20280;-74
2021/01/04 08:14:25;;;;;;;44.97;18.47;;;;;;;0.88;100.00;95790.16;4968546;28;20340;-73
2021/01/04 08:16:55;;;;;;;52.70;19.27;;;;;;;0.92;100.00;95801.91;4997787;28;20272;-74
2021/01/04 08:19:23;;;;;;;48.77;19.03;;;;;;;1.00;100.00;95793.47;4997813;28;20209;-73
2021/01/04 08:21:58;;;;;;;48.80;18.43;;;;;;;0.58;100.00;95797.09;4998519;28;20712;-72
2021/01/04 08:24:30;;;;;;;49.23;18.50;;;;;;;0.59;100.00;95801.31;4997318;28;20926;-73
2021/01/04 08:27:07;;;;;;;53.60;19.47;;;;;;;0.62;100.00;95806.25;4997862;28;20212;-73
2021/01/04 08:29:40;;;;;;;51.37;18.97;;;;;;;0.58;100.00;95800.47;4998176;28;21011;-72
2021/01/04 08:32:17;;;;;;;54.37;20.27;;;;;;;0.55;100.00;95810.31;4997494;28;20225;-74
2021/01/04 08:34:45;;;;;;;59.47;19.53;;;;;;;0.63;100.00;95810.47;4996106;28;20825;-73
2021/01/04 08:37:14;;;;;;;50.67;19.40;;;;;;;0.62;100.00;95811.44;4996533;28;20212;-74
2021/01/04 08:39:44;;;;;;;53.10;19.93;;;;;;;0.67;100.00;95801.50;4997372;28;20209;-73
2021/01/04 08:42:27;;;;;;;54.03;19.30;;;;;;;0.74;100.00;95807.84;4997867;28;20204;-71
2021/01/04 08:44:57;;;;;;;49.87;18.97;;;;;;;0.74;100.00;95805.22;4997598;28;20299;-71
2021/01/04 08:47:37;;;;;;;52.70;20.07;;;;;;;0.64;100.00;95802.56;4997328;28;20212;-74
2021/01/04 08:50:16;;;;;;;50.43;18.40;;;;;;;0.54;100.00;95793.09;4995043;28;20204;-73
2021/01/04 08:52:47;;;;;;;51.47;18.80;;;;;;;0.45;100.00;95800.84;4997515;28;20230;-73
2021/01/04 08:55:29;;;;;;;55.33;19.23;;;;;;;0.42;100.00;95801.91;4995740;28;20251;-74
2021/01/04 08:57:56;;;;;;;49.10;18.40;;;;;;;0.45;100.00;95796.47;4994674;28;20716;-74
2021/01/04 09:00:25;;;;;;;52.57;19.40;;;;;;;0.53;100.00;95798.41;4997189;28;20214;-74
2021/01/04 09:02:54;;;;;;;51.30;17.37;;;;;;;0.46;100.00;95802.44;4997819;28;20457;-72
2021/01/04 09:05:32;;;;;;;50.47;17.93;;;;;;;0.52;100.00;95797.59;4996879;28;20305;-71
2021/01/04 09:07:59;;;;;;;52.07;19.23;;;;;;;0.56;100.00;95801.59;4997314;28;20259;-74
2021/01/04 09:10:35;;;;;;;49.97;19.07;;;;;;;0.57;100.00;95790.25;4997285;28;20593;-73
2021/01/04 09:13:09;;;;;;;52.30;19.07;;;;;;;0.62;100.00;95791.53;4997246;28;20265;-74
2021/01/04 09:15:37;;;;;;;53.53;17.77;;;;;;;0.63;100.00;95797.53;4996288;28;20222;-73
2021/01/04 09:18:35;;;;;;;49.10;18.93;;;;;;;0.66;100.00;95786.88;4996402;28;20202;-72
2021/01/04 09:21:06;;;;;;;53.80;18.63;;;;;;;0.62;100.00;95795.88;4916410;29;20209;-74
2021/01/04 09:23:37;;;;;;;53.70;18.30;;;;;;;0.66;100.00;95792.06;4979508;28;20230;-73
2021/01/04 09:26:16;;;;;;;45.43;17.47;;;;;;;0.65;100.00;95793.03;4994879;28;20208;-71
2021/01/04 09:28:45;;;;;;;46.93;18.63;;;;;;;0.66;100.00;95795.50;4995230;28;20743;-72
2021/01/04 09:31:15;;;;;;;52.07;19.67;;;;;;;0.71;100.00;95793.34;4996103;28;20284;-74
2021/01/04 09:33:47;;;;;;;48.70;19.13;;;;;;;0.75;100.00;95791.28;4996494;28;20241;-72
2021/01/04 09:36:15;;;;;;;52.10;19.27;;;;;;;0.77;100.00;95802.38;4996362;28;21031;-73
2021/01/04 09:38:42;;;;;;;47.63;18.50;;;;;;;0.77;100.00;95802.38;4996206;28;20210;-74
2021/01/04 09:41:11;;;;;;;51.80;20.27;;;;;;;0.70;100.00;95804.66;4996383;28;20215;-74
2021/01/04 09:43:39;;;;;;;51.37;18.40;;;;;;;0.67;100.00;95801.50;4996599;28;20226;-71
2021/01/04 09:46:14;;;;;;;49.03;19.00;;;;;;;0.64;100.00;95807.75;4996078;28;20207;-74
2021/01/04 09:48:45;;;;;;;50.07;18.93;;;;;;;0.59;100.00;95803.91;4996754;28;20208;-71
2021/01/04 09:51:16;;;;;;;44.93;18.50;;;;;;;0.56;100.00;95806.78;4996085;28;20206;-74
2021/01/04 09:53:54;;;;;;;48.17;18.47;;;;;;;0.53;100.00;95798.41;4994828;28;20236;-73
2021/01/04 09:56:28;;;;;;;46.93;18.57;;;;;;;0.51;100.00;95800.31;4995381;28;20220;-74
2021/01/04 09:59:00;;;;;;;46.13;17.77;;;;;;;0.53;100.00;95798.41;4996285;28;20271;-73
2021/01/04 10:01:26;;;;;;;45.57;17.43;;;;;;;0.51;100.00;95800.31;4995471;28;20210;-73
2021/01/04 10:03:55;;;;;;;52.40;19.37;;;;;;;0.45;100.00;95801.66;4996231;28;20313;-74
2021/01/04 10:06:22;;;;;;;52.07;18.97;;;;;;;0.53;100.00;95798.41;4996560;28;20202;-73
2021/01/04 10:08:51;;;;;;;46.30;16.83;;;;;;;0.45;100.00;95806.81;4995471;28;20228;-72
2021/01/04 10:11:20;;;;;;;46.23;18.03;;;;;;;0.53;100.00;95801.00;4996331;28;20216;-73
2021/01/04 10:13:47;;;;;;;49.43;19.17;;;;;;;0.63;100.00;95802.72;4995652;28;20230;-72
2021/01/04 10:16:18;;;;;;;60.67;23.33;;;;;;;0.73;100.00;95798.41;4997182;28;20202;-72
2021/01/04 10:18:51;;;;;;;51.37;20.43;;;;;;;0.69;100.00;95789.25;4995980;28;20238;-73
2021/01/04 10:21:21;;;;;;;54.23;20.57;;;;;;;0.78;100.00;95793.66;4996271;28;20262;-73
2021/01/04 10:23:53;;;;;;;44.57;18.30;;;;;;;0.68;100.00;95792.78;4995894;28;20425;-72
2021/01/04 10:26:20;;;;;;;44.73;16.13;;;;;;;0.66;100.00;95789.47;4996169;28;20211;-72
2021/01/04 10:28:46;;;;;;;48.00;17.70;;;;;;;0.48;100.00;95791.00;4995699;28;20254;-73
2021/01/04 10:31:24;;;;;;;44.10;17.43;;;;;;;0.59;100.00;95788.38;4996659;28;20203;-73
2021/01/04 10:34:01;;;;;;;49.27;19.07;;;;;;;0.62;100.00;95782.91;4995952;28;20815;-73
2021/01/04 10:36:28;;;;;;;50.67;18.90;;;;;;;0.66;100.00;95779.94;4995636;28;21133;-71
2021/01/04 10:39:00;;;;;;;51.83;19.03;;;;;;;0.63;100.00;95763.81;4996267;28;20212;-72
2021/01/04 10:41:28;;;;;;;46.77;19.20;;;;;;;0.59;100.00;95768.44;4995911;28;20214;-73
2021/01/04 10:44:05;;;;;;;49.13;18.17;;;;;;;0.53;100.00;95768.13;4998627;28;20218;-72
2021/01/04 10:46:35;;;;;;;47.87;16.73;;;;;;;0.41;100.00;95769.16;4999147;28;20206;-72
2021/01/04 10:49:05;;;;;;;48.83;19.00;;;;;;;0.58;100.00;95771.16;4997101;28;20214;-73
2021/01/04 10:51:34;;;;;;;45.47;18.50;;;;;;;0.45;100.00;95765.38;4998649;28;20249;-71
2021/01/04 10:54:12;;;;;;;50.17;18.93;;;;;;;0.55;100.00;95765.41;4998701;28;20227;-71
2021/01/04 10:56:46;;;;;;;48.23;18.00;;;;;;;0.53;100.00;95752.56;4998541;28;20934;-72
2021/01/04 10:59:24;;;;;;;52.27;18.90;;;;;;;0.64;100.00;95752.50;4998682;28;20587;-72
2021/01/04 11:01:51;;;;;;;48.43;18.07;;;;;;;0.57;100.00;95747.97;4999534;28;20231;-73
2021/01/04 11:04:20;;;;;;;48.77;18.17;;;;;;;0.65;100.00;95747.19;4998756;28;20223;-73
2021/01/04 11:06:58;;;;;;;48.13;19.37;;;;;;;0.66;100.00;95748.84;4998776;28;20220;-73
2021/01/04 11:09:28;;;;;;;49.37;20.13;;;;;;;0.69;100.00;95743.38;4998211;28;21285;-71
2021/01/04 11:12:07;;;;;;;54.03;19.67;;;;;;;0.62;100.00;95738.84;4998871;28;21218;-71
2021/01/04 11:14:33;;;;;;;51.03;19.47;;;;;;;0.65;100.00;95731.63;4998202;28;20220;-71
2021/01/04 11:17:17;;;;;;;53.47;19.90;;;;;;;0.63;100.00;95727.53;4997692;28;20229;-72
2021/01/04 11:19:43;;;;;;;55.43;20.33;;;;;;;0.67;100.00;95734.09;4998246;28;20210;-72
2021/01/04 11:22:10;;;;;;;50.77;19.33;;;;;;;0.70;100.00;95728.63;4997783;28;20305;-71
2021/01/04 11:24:37;;;;;;;54.60;20.40;;;;;;;0.62;100.00;95731.06;4997869;28;20226;-71
2021/01/04 11:27:04;;;;;;;51.87;19.73;;;;;;;0.60;100.00;95733.00;4998293;28;20279;-71
2021/01/04 11:29:30;;;;;;;52.07;19.73;;;;;;;0.67;100.00;95728.91;4998617;28;20212;-71
2021/01/04 11:31:56;;;;;;;52.43;19.93;;;;;;;0.66;100.00;95728.09;4999196;28;20213;-73
2021/01/04 11:34:22;;;;;;;51.87;19.40;;;;;;;0.59;100.00;95731.34;4999292;28;20281;-73
2021/01/04 11:36:48;;;;;;;50.03;19.43;;;;;;;0.69;100.00;95727.03;4997727;28;20998;-72
2021/01/04 11:39:15;;;;;;;52.47;19.37;;;;;;;0.69;100.00;95724.44;4997845;28;20570;-73
2021/01/04 11:41:43;;;;;;;46.97;18.80;;;;;;;0.57;100.00;95728.03;4998269;28;21147;-71
2021/01/04 11:44:09;;;;;;;51.90;19.90;;;;;;;0.67;100.00;95721.94;4997895;28;20231;-71
2021/01/04 11:46:35;;;;;;;48.43;18.67;;;;;;;0.48;100.00;95726.22;4994621;28;20808;-72
2021/01/04 11:49:01;;;;;;;52.80;21.53;;;;;;;0.46;100.00;95722.13;4999083;28;20261;-73
2021/01/04 11:51:27;;;;;;;49.13;18.87;;;;;;;0.36;100.00;95719.50;4997466;28;20211;-74
2021/01/04 11:53:54;;;;;;;49.67;18.30;;;;;;;0.39;100.00;95721.00;4997466;28;20233;-73
2021/01/04 11:56:22;;;;;;;47.03;17.47;;;;;;;0.33;100.00;95719.75;4997276;28;20233;-71